Time;durP1;ratioP1;P1;durP2;ratioP2;P2;SDS_P1;SDS_P2;PMS_P1;PMS_P2;Temp;Humidity;BMP_temperature;BMP_pressure;BME280_temperature;BME280_humidity;BME280_pressure;Samples;Min_cycle;Max_cycle;Signal;HPM_P1;HPM_P2
2022/05/09 00:01:35;;;;;;;7.10;4.20;;;14.30;99.90;;;;;;5135308;27;20088;-89
2022/05/09 00:04:01;;;;;;;12.10;4.00;;;14.20;99.90;;;;;;5123949;27;20054;-90
2022/05/09 00:06:26;;;;;;;;;;;14.20;99.90;;;;;;5117789;27;20027;-90
2022/05/09 00:08:52;;;;;;;8.05;3.97;;;14.20;99.90;;;;;;5117105;27;19903;-90
2022/05/09 00:11:18;;;;;;;;;;;14.20;99.90;;;;;;5117083;27;20518;-91
2022/05/09 00:13:43;;;;;;;6.75;3.63;;;14.20;99.90;;;;;;5116999;27;20368;-89
2022/05/09 00:16:09;;;;;;;;;;;14.20;99.90;;;;;;5117154;27;20047;-90
2022/05/09 00:18:35;;;;;;;13.30;4.03;;;14.20;99.90;;;;;;5116980;27;19904;-90
2022/05/09 00:21:00;;;;;;;;;;;14.20;99.90;;;;;;5117083;27;20027;-91
2022/05/09 00:23:26;;;;;;;10.88;4.18;;;14.20;99.90;;;;;;5116744;27;19933;-90
2022/05/09 00:25:51;;;;;;;;;;;14.20;99.90;;;;;;5117089;27;20110;-90
2022/05/09 00:28:18;;;;;;;8.98;3.70;;;14.20;99.90;;;;;;5116740;27;19904;-91
2022/05/09 00:31:07;;;;;;;5.38;3.25;;;14.20;99.90;;;;;;5124870;27;20011;-93
2022/05/09 00:33:38;;;;;;;4.47;3.70;;;14.30;99.90;;;;;;5157184;27;20334;-92
2022/05/09 00:36:04;;;;;;;8.88;3.95;;;14.30;99.90;;;;;;5125220;27;20027;-92
2022/05/09 00:38:29;;;;;;;;;;;14.40;99.90;;;;;;5119388;27;20157;-91
2022/05/09 00:43:40;;;;;;;6.10;3.28;;;14.40;99.90;;;;;;5134878;27;20042;-90
2022/05/09 00:46:08;;;;;;;8.30;2.90;;;14.50;99.90;;;;;;5116609;27;20031;-90
2022/05/09 00:48:35;;;;;;;5.55;3.60;;;14.50;99.90;;;;;;5116090;27;20030;-91
2022/05/09 00:51:02;;;;;;;8.73;3.50;;;14.50;99.90;;;;;;5116256;27;20031;-90
2022/05/09 00:53:30;;;;;;;4.93;3.28;;;14.50;99.90;;;;;;5116855;27;20467;-92
2022/05/09 00:56:00;;;;;;;6.55;3.97;;;14.60;99.90;;;;;;5117718;27;20138;-91
2022/05/09 00:58:43;;;;;;;6.60;3.45;;;14.60;99.90;;;;;;5117912;27;20032;-91
2022/05/09 01:01:11;;;;;;;5.05;3.28;;;14.60;99.90;;;;;;5116741;27;20026;-91
2022/05/09 01:03:50;;;;;;;4.25;3.17;;;14.70;99.90;;;;;;5116941;27;20112;-92
2022/05/09 01:06:16;;;;;;;11.13;3.38;;;14.70;99.90;;;;;;5116819;27;20121;-91
2022/05/09 01:08:41;;;;;;;;;;;14.70;99.90;;;;;;5116861;27;20051;-92
2022/05/09 01:11:16;;;;;;;5.90;3.38;;;14.70;99.90;;;;;;5116298;27;19922;-91
2022/05/09 01:13:46;;;;;;;9.90;3.47;;;14.70;99.90;;;;;;5116517;27;20394;-92
2022/05/09 01:16:16;;;;;;;7.22;2.88;;;14.70;99.90;;;;;;5115692;27;20198;-92
2022/05/09 01:18:43;;;;;;;7.00;3.20;;;14.70;99.90;;;;;;5116401;27;20060;-91
2022/05/09 01:21:29;;;;;;;6.18;2.83;;;14.70;99.90;;;;;;5116527;27;20075;-92
2022/05/09 01:23:56;;;;;;;3.78;2.60;;;14.80;99.90;;;;;;5117678;27;20031;-93
2022/05/09 01:26:22;;;;;;;5.63;3.33;;;14.80;99.90;;;;;;5119356;27;20035;-92
2022/05/09 01:28:48;;;;;;;4.45;2.45;;;14.90;99.90;;;;;;5120622;27;20027;-93
2022/05/09 01:31:16;;;;;;;;;;;14.80;99.90;;;;;;5121752;27;20208;-93
2022/05/09 01:33:46;;;;;;;4.80;2.72;;;14.90;99.90;;;;;;5118988;27;20276;-93
2022/05/09 01:36:17;;;;;;;6.63;2.67;;;14.90;99.90;;;;;;5119528;27;20031;-93
2022/05/09 01:38:58;;;;;;;4.13;2.80;;;14.90;99.90;;;;;;5118408;27;20015;-92
2022/05/09 01:41:26;;;;;;;6.20;2.60;;;15.00;99.90;;;;;;5118065;27;20059;-92
2022/05/09 01:43:55;;;;;;;5.82;3.25;;;15.00;99.90;;;;;;5116876;27;20027;-92
2022/05/09 01:49:31;;;;;;;4.68;2.95;;;15.10;99.90;;;;;;5141906;27;20050;-93
2022/05/09 01:52:03;;;;;;;5.72;2.67;;;15.20;99.90;;;;;;5141828;27;20007;-93
2022/05/09 01:54:29;;;;;;;4.55;2.10;;;15.20;99.90;;;;;;5158524;27;20035;-93
2022/05/09 01:56:55;;;;;;;;;;;15.20;99.90;;;;;;5157448;27;20027;-93
2022/05/09 01:59:21;;;;;;;4.20;1.85;;;15.20;99.90;;;;;;5137317;27;19903;-90
2022/05/09 02:01:53;;;;;;;7.20;2.78;;;15.20;99.90;;;;;;5115561;27;20039;-91
2022/05/09 02:04:19;;;;;;;4.10;2.42;;;15.20;99.90;;;;;;5114645;27;20035;-93
2022/05/09 02:06:45;;;;;;;;;;;15.20;99.90;;;;;;5117113;27;20031;-94
2022/05/09 02:09:11;;;;;;;3.45;2.33;;;15.30;99.90;;;;;;5115453;27;19955;-94
2022/05/09 02:11:38;;;;;;;4.63;2.28;;;15.30;99.90;;;;;;5115107;27;20376;-93
2022/05/09 02:14:04;;;;;;;4.18;2.55;;;15.30;99.90;;;;;;5114786;27;20023;-91
2022/05/09 02:16:29;;;;;;;;;;;15.30;99.90;;;;;;5115050;27;20597;-92
2022/05/09 02:18:56;;;;;;;4.07;2.67;;;15.20;99.90;;;;;;5118578;27;19903;-92
2022/05/09 02:21:21;;;;;;;5.30;2.83;;;15.20;99.90;;;;;;5115580;27;20034;-93
2022/05/09 02:23:47;;;;;;;;;;;15.10;99.90;;;;;;5115906;27;20023;-93
2022/05/09 02:26:14;;;;;;;3.33;2.20;;;15.10;99.90;;;;;;5114742;27;19909;-93
2022/05/09 02:28:39;;;;;;;6.40;3.75;;;15.10;99.90;;;;;;5116551;27;20030;-93
2022/05/09 02:31:05;;;;;;;;;;;15.00;99.90;;;;;;5137559;27;20035;-93
2022/05/09 02:33:31;;;;;;;6.93;3.30;;;15.00;99.90;;;;;;5137828;27;19903;-94
2022/05/09 02:35:57;;;;;;;8.77;3.15;;;14.90;99.90;;;;;;5132633;27;20102;-92
2022/05/09 02:38:24;;;;;;;;;;;14.90;99.90;;;;;;5115432;27;20068;-90
2022/05/09 02:40:51;;;;;;;5.32;3.17;;;15.00;99.90;;;;;;5114430;27;19914;-91
2022/05/09 02:43:17;;;;;;;5.85;3.17;;;15.00;99.90;;;;;;5114698;27;20089;-92
2022/05/09 02:45:43;;;;;;;;;;;15.00;99.90;;;;;;5114932;28;20494;-92
2022/05/09 02:48:10;;;;;;;13.07;4.18;;;15.00;99.90;;;;;;5114601;28;19904;-91
2022/05/09 02:50:36;;;;;;;5.13;3.30;;;15.00;99.90;;;;;;5114151;28;20077;-92
2022/05/09 02:53:03;;;;;;;10.50;3.65;;;14.90;99.90;;;;;;5114357;28;20020;-91
2022/05/09 02:55:31;;;;;;;9.40;3.42;;;14.90;99.90;;;;;;5117547;27;20403;-92
2022/05/09 02:57:58;;;;;;;4.35;3.05;;;14.90;99.90;;;;;;5118295;27;20517;-91
2022/05/09 03:00:26;;;;;;;4.43;3.17;;;14.90;99.90;;;;;;5118112;27;20052;-91
2022/05/09 03:05:39;;;;;;;5.68;3.33;;;14.80;99.90;;;;;;5123691;27;20463;-93
2022/05/09 03:08:05;;;;;;;5.45;3.63;;;14.80;99.90;;;;;;5099828;28;20385;-91
2022/05/09 03:10:31;;;;;;;5.88;3.40;;;14.70;99.90;;;;;;5117976;27;20125;-92
2022/05/09 03:12:59;;;;;;;;;;;14.80;99.90;;;;;;5110858;28;20551;-92
2022/05/09 03:15:26;;;;;;;5.10;3.20;;;14.70;99.90;;;;;;5111457;27;19985;-92
2022/05/09 03:17:52;;;;;;;5.32;3.10;;;14.60;99.90;;;;;;5119122;27;20495;-92
2022/05/09 03:20:17;;;;;;;;;;;14.60;99.90;;;;;;5119974;27;20019;-92
2022/05/09 03:22:43;;;;;;;7.00;3.25;;;14.60;99.90;;;;;;5117583;27;19910;-90
2022/05/09 03:25:08;;;;;;;;;;;14.60;99.90;;;;;;5104945;27;20038;-91
2022/05/09 03:27:34;;;;;;;6.45;2.70;;;14.70;99.90;;;;;;5113151;28;20007;-89
2022/05/09 03:30:00;;;;;;;;;;;14.90;99.90;;;;;;5100124;28;20104;-91
2022/05/09 03:32:26;;;;;;;6.78;2.97;;;15.10;99.90;;;;;;5114200;28;20313;-91
2022/05/09 03:34:51;;;;;;;;;;;15.30;99.90;;;;;;5097737;28;20028;-91
2022/05/09 03:37:17;;;;;;;6.90;2.78;;;15.30;99.90;;;;;;5113070;28;19915;-90
2022/05/09 03:39:42;;;;;;;;;;;15.30;99.90;;;;;;5100250;28;20020;-93
2022/05/09 03:42:08;;;;;;;11.88;2.70;;;15.20;99.90;;;;;;5116881;28;20421;-91
2022/05/09 03:44:34;;;;;;;;;;;15.20;99.90;;;;;;5097350;28;20020;-91
2022/05/09 03:47:01;;;;;;;4.20;2.95;;;15.10;99.90;;;;;;5110577;27;19903;-93
2022/05/09 03:49:27;;;;;;;5.68;2.75;;;15.10;99.90;;;;;;5135502;27;20031;-94
2022/05/09 03:51:52;;;;;;;8.98;3.00;;;15.20;99.90;;;;;;5113835;27;20328;-91
2022/05/09 03:54:18;;;;;;;;;;;15.40;99.90;;;;;;5118030;27;20098;-91
2022/05/09 03:56:44;;;;;;;6.05;2.70;;;15.50;99.90;;;;;;5117585;27;19903;-91
2022/05/09 03:59:10;;;;;;;6.32;2.58;;;15.60;99.90;;;;;;5117545;27;20022;-92
2022/05/09 04:01:35;;;;;;;;;;;15.70;99.90;;;;;;5118879;27;20412;-91
2022/05/09 04:04:01;;;;;;;5.63;3.20;;;15.70;99.90;;;;;;5118212;27;20164;-94
2022/05/09 04:06:28;;;;;;;;;;;15.80;99.90;;;;;;5117867;27;20494;-91
2022/05/09 04:08:55;;;;;;;4.15;2.50;;;15.90;99.90;;;;;;5117265;27;19904;-89
2022/05/09 04:11:20;;;;;;;5.70;2.58;;;16.10;99.90;;;;;;5117139;27;20036;-92
2022/05/09 04:13:46;;;;;;;;;;;16.20;99.90;;;;;;5117694;27;20016;-92
2022/05/09 04:18:59;;;;;;;5.15;2.70;;;16.70;98.70;;;;;;5135149;27;20068;-92
2022/05/09 04:21:25;;;;;;;7.80;2.58;;;17.00;98.10;;;;;;5116348;27;20023;-92
2022/05/09 04:23:55;;;;;;;4.72;2.67;;;17.20;96.80;;;;;;5116779;27;20043;-92
2022/05/09 04:26:29;;;;;;;4.63;2.40;;;17.40;95.60;;;;;;5116706;27;20031;-92
2022/05/09 04:28:55;;;;;;;6.63;2.85;;;17.50;95.50;;;;;;5116894;27;20023;-93
2022/05/09 04:31:22;;;;;;;4.57;2.20;;;17.70;94.00;;;;;;5115111;27;20057;-92
2022/05/09 04:33:48;;;;;;;7.03;2.58;;;17.90;93.70;;;;;;5113943;27;20444;-92
2022/05/09 04:36:14;;;;;;;5.45;2.50;;;18.10;93.20;;;;;;5116571;27;20023;-93
2022/05/09 04:38:42;;;;;;;4.97;1.73;;;18.30;92.60;;;;;;5116097;27;20031;-90
2022/05/09 04:41:10;;;;;;;4.35;2.45;;;18.60;91.20;;;;;;5117275;27;20027;-91
2022/05/09 04:43:37;;;;;;;3.67;2.30;;;18.90;89.70;;;;;;5117086;27;20023;-90
2022/05/09 04:46:04;;;;;;;3.20;1.95;;;19.00;89.60;;;;;;5116095;27;20024;-91
2022/05/09 04:48:31;;;;;;;9.13;3.03;;;19.30;87.80;;;;;;5116647;27;20019;-91
2022/05/09 04:50:58;;;;;;;3.30;1.90;;;19.50;89.80;;;;;;5116651;27;20027;-91
2022/05/09 04:53:25;;;;;;;6.45;2.45;;;19.60;88.40;;;;;;5111924;28;20065;-90
2022/05/09 04:55:51;;;;;;;4.40;2.25;;;19.80;87.10;;;;;;5100231;27;20032;-85
2022/05/09 04:58:21;;;;;;;5.45;2.13;;;19.90;84.70;;;;;;5135605;27;20031;-89
2022/05/09 05:00:47;;;;;;;5.85;1.90;;;20.00;80.00;;;;;;5116194;27;20023;-90
2022/05/09 05:03:13;;;;;;;2.92;1.92;;;20.20;78.00;;;;;;5102125;28;20168;-90
2022/05/09 05:05:40;;;;;;;5.03;2.30;;;20.20;76.00;;;;;;5095464;28;20048;-90
2022/05/09 05:08:06;;;;;;;3.17;2.20;;;20.20;75.90;;;;;;5097223;28;20036;-90
2022/05/09 05:10:32;;;;;;;3.67;2.40;;;20.20;75.70;;;;;;5095423;28;20028;-90
2022/05/09 05:12:59;;;;;;;8.25;2.13;;;20.30;75.80;;;;;;5094193;28;20362;-90
2022/05/09 05:15:26;;;;;;;4.57;2.22;;;20.30;76.00;;;;;;5096312;28;20028;-88
2022/05/09 05:17:52;;;;;;;5.57;2.20;;;20.40;71.00;;;;;;5092329;28;20503;-89
2022/05/09 05:20:18;;;;;;;3.28;2.15;;;20.40;69.60;;;;;;5091707;28;20024;-90
2022/05/09 05:22:49;;;;;;;6.53;2.30;;;20.40;69.50;;;;;;5093468;28;20480;-89
2022/05/09 05:25:21;;;;;;;9.63;1.85;;;20.40;70.20;;;;;;5091953;28;20024;-88
2022/05/09 05:27:47;;;;;;;6.95;2.00;;;20.40;68.90;;;;;;5092489;28;20145;-91
2022/05/09 05:30:14;;;;;;;4.03;1.85;;;20.50;68.00;;;;;;5092166;28;20024;-91
2022/05/09 05:32:41;;;;;;;3.15;1.77;;;20.60;69.20;;;;;;5091906;28;20068;-89
2022/05/09 05:35:11;;;;;;;8.68;2.00;;;21.00;69.10;;;;;;5092015;28;20020;-90
2022/05/09 05:37:36;;;;;;;5.78;2.55;;;21.30;69.20;;;;;;5094115;28;20028;-91
2022/05/09 05:40:03;;;;;;;5.80;2.03;;;21.40;69.00;;;;;;5093830;28;20044;-90
2022/05/09 05:42:29;;;;;;;8.40;2.15;;;21.40;66.70;;;;;;5084423;28;20052;-85
2022/05/09 05:44:55;;;;;;;5.72;1.67;;;21.40;66.40;;;;;;5071604;28;20025;-90
2022/05/09 05:47:22;;;;;;;6.85;2.60;;;21.50;67.50;;;;;;5090899;28;20109;-89
2022/05/09 05:49:48;;;;;;;10.57;2.85;;;21.70;68.30;;;;;;5091100;28;20059;-90
2022/05/09 05:52:15;;;;;;;14.77;3.33;;;22.10;67.70;;;;;;5092667;28;20103;-90
2022/05/09 05:54:43;;;;;;;6.63;2.63;;;22.30;66.20;;;;;;5091126;28;20032;-90
2022/05/09 05:57:27;;;;;;;7.88;2.25;;;22.60;65.60;;;;;;5091022;28;20060;-90
2022/05/09 05:59:55;;;;;;;12.40;2.20;;;22.90;64.20;;;;;;5091497;28;20027;-89
2022/05/09 06:02:21;;;;;;;4.20;2.38;;;23.10;61.70;;;;;;5072682;28;20180;-91
2022/05/09 06:04:47;;;;;;;4.32;1.80;;;23.30;59.80;;;;;;5071184;28;20574;-90
2022/05/09 06:07:13;;;;;;;4.85;1.92;;;23.40;59.60;;;;;;5070574;28;20021;-92
2022/05/09 06:09:40;;;;;;;6.80;2.03;;;23.50;59.40;;;;;;5070818;28;20051;-91
2022/05/09 06:12:07;;;;;;;2.92;2.33;;;23.70;57.10;;;;;;5070473;28;20526;-91
2022/05/09 06:14:33;;;;;;;6.47;2.00;;;24.10;53.60;;;;;;5071016;28;20120;-92
2022/05/09 06:16:59;;;;;;;5.40;2.08;;;24.90;49.60;;;;;;5070688;28;20118;-90
2022/05/09 06:19:24;;;;;;;5.53;2.30;;;25.30;48.40;;;;;;5070237;28;20052;-91
2022/05/09 06:21:51;;;;;;;3.20;1.83;;;25.40;47.80;;;;;;5070292;28;20480;-91
2022/05/09 06:24:17;;;;;;;3.67;1.83;;;25.80;46.00;;;;;;5070934;28;20035;-91
2022/05/09 06:26:45;;;;;;;6.95;2.28;;;26.90;42.30;;;;;;5071117;28;20032;-88
2022/05/09 06:29:11;;;;;;;6.45;2.35;;;27.70;38.70;;;;;;5069829;28;20017;-89
2022/05/09 06:31:37;;;;;;;3.83;2.15;;;28.20;38.00;;;;;;5071357;28;20103;-89
2022/05/09 06:34:04;;;;;;;3.97;2.05;;;29.00;35.30;;;;;;5069834;28;20021;-88
2022/05/09 06:36:34;;;;;;;5.70;2.10;;;29.40;33.00;;;;;;5070449;28;20488;-89
2022/05/09 06:39:01;;;;;;;4.10;2.00;;;29.70;31.50;;;;;;5069758;28;20035;-88
2022/05/09 06:41:26;;;;;;;3.53;2.03;;;30.40;31.60;;;;;;5069984;28;20029;-88
2022/05/09 06:43:52;;;;;;;5.38;2.00;;;31.00;29.80;;;;;;5071306;28;20082;-92
2022/05/09 06:46:18;;;;;;;3.80;1.88;;;31.30;29.60;;;;;;5078547;28;20043;-88
2022/05/09 06:48:43;;;;;;;13.75;1.95;;;31.80;27.50;;;;;;5090732;28;20016;-92
2022/05/09 06:51:10;;;;;;;2.65;1.70;;;31.90;27.90;;;;;;5093367;28;20036;-92
2022/05/09 06:53:36;;;;;;;5.40;2.25;;;31.70;27.60;;;;;;5091315;28;20024;-92
2022/05/09 06:56:01;;;;;;;3.58;1.95;;;31.50;27.80;;;;;;5091844;28;20027;-92
2022/05/09 06:58:27;;;;;;;4.93;1.70;;;31.40;27.50;;;;;;5082681;28;20374;-91
2022/05/09 07:00:53;;;;;;;7.43;2.03;;;31.30;27.30;;;;;;5071843;28;20400;-93
2022/05/09 07:03:21;;;;;;;3.80;1.70;;;31.10;27.20;;;;;;5090170;28;20048;-90
2022/05/09 07:05:49;;;;;;;5.57;1.80;;;31.10;27.20;;;;;;5091944;28;20060;-92
2022/05/09 07:08:15;;;;;;;6.65;2.15;;;31.30;27.20;;;;;;5090131;28;20123;-92
2022/05/09 07:10:42;;;;;;;4.80;2.03;;;31.30;27.10;;;;;;5090587;28;20070;-91
2022/05/09 07:13:08;;;;;;;6.60;2.10;;;31.30;26.50;;;;;;5091634;28;20621;-91
2022/05/09 07:15:35;;;;;;;5.80;2.38;;;31.30;27.30;;;;;;5089753;28;20081;-92
2022/05/09 07:18:01;;;;;;;3.47;1.80;;;31.50;27.20;;;;;;5090199;28;20377;-92
2022/05/09 07:20:30;;;;;;;2.40;1.67;;;31.30;26.30;;;;;;5095404;28;20115;-92
2022/05/09 07:23:02;;;;;;;6.07;2.05;;;31.20;26.20;;;;;;5090409;28;20481;-92
2022/05/09 07:25:28;;;;;;;3.15;1.52;;;31.10;26.70;;;;;;5090790;28;20031;-92
2022/05/09 07:27:54;;;;;;;4.90;1.55;;;31.30;27.00;;;;;;5092600;28;20020;-92
2022/05/09 07:30:22;;;;;;;5.05;1.58;;;31.50;26.20;;;;;;5096517;28;20025;-92
2022/05/09 07:32:51;;;;;;;2.78;1.48;;;31.90;26.50;;;;;;5090343;28;20036;-92
2022/05/09 07:35:17;;;;;;;4.82;1.75;;;32.10;26.60;;;;;;5090248;28;20032;-90
2022/05/09 07:37:46;;;;;;;3.80;2.10;;;32.50;26.30;;;;;;5071928;28;20420;-92
2022/05/09 07:40:13;;;;;;;5.07;2.05;;;32.60;26.10;;;;;;5071673;28;20059;-92
2022/05/09 07:42:41;;;;;;;4.05;1.90;;;31.90;26.20;;;;;;5069485;28;20060;-92
2022/05/09 07:45:09;;;;;;;3.13;1.70;;;31.50;26.50;;;;;;5073289;28;20037;-91
2022/05/09 07:47:34;;;;;;;2.97;1.55;;;30.90;26.40;;;;;;5076958;28;20045;-78
2022/05/09 07:50:00;;;;;;;4.60;2.10;;;30.50;27.20;;;;;;5080490;28;20508;-83
2022/05/09 07:52:26;;;;;;;7.93;2.33;;;30.30;27.00;;;;;;5083534;28;20984;-83
2022/05/09 07:54:52;;;;;;;4.20;2.05;;;30.10;27.60;;;;;;5080766;28;20126;-82
2022/05/09 07:57:18;;;;;;;4.78;1.92;;;29.60;28.40;;;;;;5079429;28;20040;-84
2022/05/09 07:59:43;;;;;;;4.00;2.13;;;29.60;29.20;;;;;;5074783;28;20031;-86
2022/05/09 08:02:09;;;;;;;4.38;2.15;;;29.30;29.20;;;;;;5084741;27;20062;-84
2022/05/09 08:04:35;;;;;;;9.90;2.55;;;28.50;29.50;;;;;;5110774;27;20040;-83
2022/05/09 08:07:02;;;;;;;3.53;1.88;;;28.10;31.20;;;;;;5111690;27;20036;-83
2022/05/09 08:09:28;;;;;;;4.63;2.40;;;27.60;31.10;;;;;;5106811;27;20114;-83
2022/05/09 08:11:54;;;;;;;5.32;2.28;;;27.40;31.40;;;;;;5115459;27;20646;-83
2022/05/09 08:14:20;;;;;;;3.75;2.03;;;27.20;32.30;;;;;;5121036;27;20039;-84
2022/05/09 08:16:46;;;;;;;3.95;1.98;;;27.10;32.20;;;;;;5110011;27;20059;-84
2022/05/09 08:19:12;;;;;;;5.88;2.63;;;27.20;31.80;;;;;;5109391;27;20755;-82
2022/05/09 08:21:38;;;;;;;7.03;1.88;;;27.60;32.00;;;;;;5116255;27;20173;-82
2022/05/09 08:24:05;;;;;;;6.55;2.00;;;28.00;32.40;;;;;;5102472;27;20055;-83
2022/05/09 08:26:32;;;;;;;4.03;2.05;;;27.80;31.80;;;;;;5116583;27;20110;-82
2022/05/09 08:28:57;;;;;;;4.32;2.10;;;28.20;31.00;;;;;;5113073;27;20047;-83
2022/05/09 08:31:23;;;;;;;6.13;1.80;;;28.20;31.30;;;;;;5120145;27;20043;-82
2022/05/09 08:33:51;;;;;;;4.07;2.35;;;28.20;30.80;;;;;;5116308;27;20066;-82
2022/05/09 08:39:04;;;;;;;4.07;1.80;;;27.90;32.20;;;;;;5118647;27;20057;-82
2022/05/09 08:41:51;;;;;;;6.32;2.53;;;28.20;32.60;;;;;;5120681;27;20046;-84
2022/05/09 08:44:16;;;;;;;4.93;1.98;;;28.60;32.00;;;;;;5114293;27;20043;-83
2022/05/09 08:47:19;;;;;;;6.40;2.33;;;28.70;32.40;;;;;;5104689;27;20031;-84
2022/05/09 08:50:04;;;;;;;5.97;2.20;;;28.20;31.30;;;;;;5110229;28;20034;-83
2022/05/09 08:52:39;;;;;;;3.58;2.33;;;27.90;31.40;;;;;;5111056;28;20460;-83
2022/05/09 08:55:06;;;;;;;4.90;2.03;;;27.40;33.10;;;;;;5109246;28;20036;-82
2022/05/09 08:57:39;;;;;;;7.93;2.15;;;26.90;33.50;;;;;;5105325;28;20488;-83
2022/05/09 09:00:15;;;;;;;4.40;2.38;;;26.60;34.30;;;;;;5102334;28;20158;-83
2022/05/09 09:02:59;;;;;;;6.47;1.77;;;26.20;35.40;;;;;;5101072;28;20055;-82
2022/05/09 09:05:28;;;;;;;4.85;2.20;;;26.10;36.10;;;;;;5105187;28;20039;-83
2022/05/09 09:08:17;;;;;;;13.40;3.15;;;25.90;35.30;;;;;;5101245;28;20045;-82
2022/05/09 09:11:25;;;;;;;5.72;2.13;;;25.70;37.40;;;;;;5059473;28;20070;-82
2022/05/09 09:14:15;;;;;;;4.35;2.50;;;25.40;35.70;;;;;;5104887;28;20531;-81
2022/05/09 09:17:28;;;;;;;6.22;2.40;;;24.90;36.90;;;;;;5096935;27;20523;-83
2022/05/09 09:19:58;;;;;;;5.25;2.40;;;24.70;38.30;;;;;;5055912;28;20056;-83
2022/05/09 09:22:26;;;;;;;3.33;2.00;;;24.40;38.90;;;;;;5099624;27;20031;-82
2022/05/09 09:25:15;;;;;;;7.30;2.92;;;24.30;39.70;;;;;;5102264;27;20028;-84
2022/05/09 09:27:46;;;;;;;6.10;2.20;;;24.00;39.90;;;;;;5100416;27;20038;-82
2022/05/09 09:30:16;;;;;;;5.05;2.20;;;23.90;40.90;;;;;;5093484;27;20505;-82
2022/05/09 09:32:46;;;;;;;8.55;2.53;;;23.70;41.60;;;;;;5101344;27;20470;-82
2022/05/09 09:35:24;;;;;;;4.32;2.30;;;23.60;41.00;;;;;;5100790;27;20031;-83
2022/05/09 09:38:09;;;;;;;8.40;2.60;;;23.40;41.50;;;;;;5104892;27;20136;-84
2022/05/09 09:40:35;;;;;;;5.47;2.42;;;23.20;45.80;;;;;;5104779;27;20055;-84
2022/05/09 09:43:01;;;;;;;3.85;1.85;;;22.90;46.40;;;;;;5106304;27;20039;-84
2022/05/09 09:45:33;;;;;;;4.18;2.30;;;22.60;45.60;;;;;;5107757;27;20043;-84
2022/05/09 09:48:22;;;;;;;4.65;2.53;;;22.40;45.20;;;;;;5098185;27;20055;-90
2022/05/09 09:51:11;;;;;;;7.38;2.30;;;22.30;46.20;;;;;;5103760;27;20042;-90
2022/05/09 09:53:45;;;;;;;8.55;2.53;;;22.10;48.20;;;;;;5088732;28;20047;-90
2022/05/09 09:56:20;;;;;;;4.57;1.80;;;21.80;49.70;;;;;;5102625;27;20036;-91
2022/05/09 09:58:48;;;;;;;3.65;1.90;;;21.60;49.30;;;;;;5097842;28;20047;-91
2022/05/09 10:01:24;;;;;;;2.95;1.70;;;21.40;48.90;;;;;;5091232;28;20040;-91
2022/05/09 10:04:11;;;;;;;;;;;21.50;49.60;;;;;;5080039;28;20109;-90
2022/05/09 10:07:01;;;;;;;1.90;1.33;;;21.50;47.90;;;;;;5103396;27;19920;-89
2022/05/09 10:09:32;;;;;;;4.68;2.08;;;21.70;46.90;;;;;;5081265;28;20281;-90
2022/05/09 10:12:19;;;;;;;4.28;1.48;;;21.80;46.90;;;;;;5110561;27;20038;-90
2022/05/09 10:14:45;;;;;;;;;;;21.80;47.70;;;;;;5100560;27;20031;-89
2022/05/09 10:17:25;;;;;;;5.45;1.67;;;21.90;48.70;;;;;;5095613;27;19920;-88
2022/05/09 10:19:53;;;;;;;11.05;1.77;;;22.20;49.10;;;;;;5100732;27;20123;-87
2022/05/09 10:25:20;;;;;;;4.13;2.05;;;22.90;48.10;;;;;;5112490;28;20054;-88
2022/05/09 10:28:01;;;;;;;4.28;1.70;;;23.20;47.90;;;;;;5094058;28;20476;-89
2022/05/09 10:30:32;;;;;;;3.92;1.50;;;23.40;46.40;;;;;;5094017;28;20407;-88
2022/05/09 10:33:31;;;;;;;3.00;1.30;;;23.60;45.60;;;;;;5094364;28;20106;-88
2022/05/09 10:36:01;;;;;;;3.55;2.40;;;23.70;44.60;;;;;;5092678;28;20078;-87
2022/05/09 10:39:08;;;;;;;6.22;2.17;;;23.70;47.10;;;;;;5093475;28;20024;-89
2022/05/09 10:41:40;;;;;;;5.60;2.15;;;23.70;48.10;;;;;;5012620;28;20037;-89
2022/05/09 10:44:34;;;;;;;6.82;2.65;;;23.50;48.30;;;;;;5096352;28;20032;-88
2022/05/09 10:47:06;;;;;;;3.53;1.30;;;23.30;49.10;;;;;;5074382;28;20038;-87
2022/05/09 10:50:03;;;;;;;4.35;1.00;;;23.10;47.10;;;;;;5093347;28;20262;-88
2022/05/09 10:52:41;;;;;;;3.72;1.20;;;22.90;46.50;;;;;;5093567;28;20426;-88
2022/05/09 10:55:22;;;;;;;4.20;1.25;;;22.60;46.70;;;;;;5093138;28;20038;-87
2022/05/09 10:58:15;;;;;;;4.55;1.98;;;22.40;48.40;;;;;;5093315;28;20035;-89
2022/05/09 11:00:51;;;;;;;2.92;1.85;;;22.10;52.80;;;;;;5110703;28;20040;-89
2022/05/09 11:03:19;;;;;;;6.32;1.77;;;21.90;61.80;;;;;;5093524;28;20473;-88
2022/05/09 11:05:54;;;;;;;12.07;2.88;;;21.60;68.00;;;;;;5111748;28;20060;-88
2022/05/09 11:08:35;;;;;;;12.75;2.90;;;21.40;76.80;;;;;;5093611;28;20107;-88
2022/05/09 11:11:16;;;;;;;12.80;3.47;;;21.10;90.20;;;;;;5093508;28;20365;-87
2022/05/09 11:13:50;;;;;;;4.68;2.15;;;20.90;95.80;;;;;;5093464;28;20020;-86
2022/05/09 11:16:25;;;;;;;15.40;4.10;;;20.60;94.80;;;;;;5093858;28;20030;-86
2022/05/09 11:18:57;;;;;;;6.28;3.08;;;20.40;99.90;;;;;;5097052;28;20115;-87
2022/05/09 11:21:41;;;;;;;5.53;3.00;;;20.10;99.90;;;;;;5097096;28;20023;-88
2022/05/09 11:24:30;;;;;;;6.82;2.80;;;19.80;99.90;;;;;;5097275;28;20100;-88
2022/05/09 11:27:33;;;;;;;4.63;2.97;;;19.70;99.90;;;;;;5096727;28;20100;-90
2022/05/09 11:30:21;;;;;;;8.25;2.35;;;19.20;99.90;;;;;;5097223;28;20066;-88
2022/05/09 11:32:57;;;;;;;4.55;1.95;;;18.80;99.90;;;;;;5097143;28;20115;-89
2022/05/09 11:35:29;;;;;;;8.43;2.78;;;18.50;99.90;;;;;;5099639;28;20034;-89
2022/05/09 11:38:06;;;;;;;5.60;2.13;;;18.30;99.90;;;;;;5097591;28;20032;-89
2022/05/09 11:41:05;;;;;;;8.23;3.03;;;18.10;99.90;;;;;;5096656;28;20036;-89
2022/05/09 11:43:43;;;;;;;7.88;2.35;;;18.00;99.90;;;;;;5095447;28;20054;-88
2022/05/09 11:46:40;;;;;;;5.32;2.80;;;17.90;99.90;;;;;;5096826;28;20119;-89
2022/05/09 11:49:32;;;;;;;6.50;2.58;;;18.10;99.90;;;;;;5096594;28;20095;-87
2022/05/09 11:52:07;;;;;;;5.43;2.80;;;18.20;99.90;;;;;;5113828;28;20111;-89
2022/05/09 11:54:45;;;;;;;5.55;3.13;;;18.40;99.90;;;;;;5114840;28;20076;-88
2022/05/09 11:57:30;;;;;;;5.38;2.83;;;18.60;99.90;;;;;;5114973;28;20023;-89
2022/05/09 11:59:58;;;;;;;8.85;2.97;;;18.70;99.90;;;;;;5096923;28;20023;-89
2022/05/09 12:02:45;;;;;;;8.18;3.05;;;18.80;99.90;;;;;;5096597;28;20492;-89
2022/05/09 12:05:29;;;;;;;4.22;2.38;;;18.90;99.90;;;;;;5114510;28;20019;-89
2022/05/09 12:08:18;;;;;;;5.38;3.47;;;19.00;99.90;;;;;;5096598;28;20027;-89
2022/05/09 12:10:48;;;;;;;8.82;2.83;;;19.20;99.90;;;;;;5095647;28;20114;-90
2022/05/09 12:13:36;;;;;;;8.68;3.10;;;19.60;99.90;;;;;;5114434;28;20027;-90
2022/05/09 12:16:02;;;;;;;4.80;2.30;;;20.00;99.90;;;;;;5082652;28;20073;-90
2022/05/09 12:18:47;;;;;;;3.58;2.08;;;20.60;99.90;;;;;;5114738;28;20683;-89
2022/05/09 12:21:17;;;;;;;4.93;1.52;;;21.10;99.90;;;;;;5096314;28;20024;-90
2022/05/09 12:23:42;;;;;;;10.35;2.40;;;21.40;99.90;;;;;;5096470;28;20051;-90
2022/05/09 12:26:25;;;;;;;4.03;1.70;;;21.60;99.90;;;;;;5113789;28;20070;-90
2022/05/09 12:28:51;;;;;;;5.07;1.85;;;21.90;99.90;;;;;;5095494;28;20038;-90
2022/05/09 12:31:50;;;;;;;3.88;1.80;;;22.40;98.00;;;;;;5096319;28;20496;-89
2022/05/09 12:34:21;;;;;;;5.35;2.45;;;22.60;85.00;;;;;;5098473;28;20028;-89
2022/05/09 12:36:47;;;;;;;5.00;2.75;;;22.80;87.00;;;;;;5096583;28;20495;-90
2022/05/09 12:39:24;;;;;;;3.45;2.17;;;22.70;91.70;;;;;;5097071;28;20020;-88
2022/05/09 12:41:56;;;;;;;4.40;2.08;;;22.60;84.80;;;;;;5096204;28;20015;-89
2022/05/09 12:44:31;;;;;;;2.42;1.70;;;22.70;81.00;;;;;;5097189;28;20024;-88
2022/05/09 12:47:04;;;;;;;4.43;1.50;;;22.40;84.70;;;;;;5093888;28;20457;-89
2022/05/09 12:49:50;;;;;;;2.88;1.55;;;22.40;88.00;;;;;;5097080;28;20276;-90
2022/05/09 12:52:33;;;;;;;6.22;1.60;;;22.30;91.80;;;;;;5120345;28;20253;-89
2022/05/09 12:57:46;;;;;;;3.03;1.55;;;21.60;91.00;;;;;;5115666;28;20031;-89
2022/05/09 13:00:17;;;;;;;5.63;1.75;;;21.10;90.60;;;;;;5098676;28;20392;-89
2022/05/09 13:02:44;;;;;;;5.93;2.40;;;20.80;92.80;;;;;;5098358;28;20097;-89
2022/05/09 13:05:13;;;;;;;4.20;1.60;;;20.70;94.00;;;;;;5105621;28;20055;-89
2022/05/09 13:07:58;;;;;;;6.07;2.15;;;20.50;96.80;;;;;;5113620;28;20026;-89
2022/05/09 13:10:25;;;;;;;3.30;1.73;;;20.40;96.80;;;;;;5113721;28;20571;-88
2022/05/09 13:12:57;;;;;;;2.97;2.20;;;20.20;99.90;;;;;;5095500;28;20111;-89
2022/05/09 13:15:23;;;;;;;5.38;2.20;;;19.90;99.90;;;;;;5094967;28;20029;-88
2022/05/09 13:18:05;;;;;;;7.40;2.10;;;19.80;99.90;;;;;;5095016;28;20122;-88
2022/05/09 13:20:48;;;;;;;4.72;2.45;;;19.60;99.90;;;;;;5095279;28;20119;-88
2022/05/09 13:23:14;;;;;;;6.50;2.33;;;19.60;99.90;;;;;;5095144;28;20047;-88
2022/05/09 13:25:48;;;;;;;4.05;2.25;;;19.60;99.90;;;;;;5094807;28;20490;-88
2022/05/09 13:28:19;;;;;;;5.40;2.95;;;19.60;99.90;;;;;;5095304;28;20032;-89
2022/05/09 13:30:55;;;;;;;4.50;1.90;;;19.70;99.90;;;;;;5094983;28;20035;-89
2022/05/09 13:33:24;;;;;;;3.63;1.80;;;19.60;99.90;;;;;;5094854;28;20470;-88